Fairdealing, Missouri
Current Conditions -  °F | °C
As of 7:53 AM on Saturday 20 Dec 2014 (Local Time) from KPOF Reporting Station
Haze Haze  
Wind Chill: 36°   Ceiling: 4100
Heat Index: 36°   Visibility: 6mi
Dew Point: 31°   Wind: 0mph
Humidity: 82%   Direction: NA
Pressure: 30.28"   Gusts: NA
Location:  36.66°N, 90.62°W
Report Text: KPOF 201353Z AUTO 00000KT 6SM HZ SCT028 BKN041 OVC060 02/M01 A3028 RMK AO2 SLP259 T00221006
Loading
Personal Weather Stations






























Interactive Weather Map New forecast layout! Learn more

10-Day Weather Forecast

Advertisements
Track Severe Weather on mobile